createdAt,value
2024-03-16T00:02:05.923Z,65.78
2024-03-16T00:07:08.055Z,65.79
2024-03-16T00:12:10.152Z,65.93
2024-03-16T00:17:12.129Z,65.85
2024-03-16T00:22:14.206Z,65.74
2024-03-16T00:27:16.250Z,66.32
2024-03-16T00:32:18.358Z,66.46
2024-03-16T00:37:20.476Z,66.37
2024-03-16T00:42:22.547Z,66.25
2024-03-16T00:47:24.816Z,66.41
2024-03-16T00:52:26.891Z,66.24
2024-03-16T00:57:29.995Z,66.29
2024-03-16T01:02:32.002Z,66.34
2024-03-16T01:07:34.031Z,66.74
2024-03-16T01:12:36.100Z,66.97
2024-03-16T01:17:38.590Z,66.95
2024-03-16T01:22:41.060Z,66.57
2024-03-16T01:27:43.114Z,66.71
2024-03-16T01:32:45.161Z,66.89
2024-03-16T01:37:47.234Z,67.27
2024-03-16T01:42:49.273Z,67.52
2024-03-16T01:47:53.991Z,67.36
2024-03-16T01:52:56.208Z,67.04
2024-03-16T01:57:58.381Z,66.94
2024-03-16T02:03:00.994Z,67.02
2024-03-16T02:08:03.280Z,66.96
2024-03-16T02:13:05.376Z,66.96
2024-03-16T02:18:10.959Z,67.24
2024-03-16T02:23:13.114Z,67.29
2024-03-16T02:28:15.528Z,67.35
2024-03-16T02:33:17.899Z,67.85
2024-03-16T02:38:20.087Z,68.22
2024-03-16T02:43:22.105Z,68.16
2024-03-16T02:48:24.116Z,68.32
2024-03-16T02:53:26.141Z,67.97
2024-03-16T02:58:28.166Z,67.84
2024-03-16T03:03:30.625Z,67.60
2024-03-16T03:08:33.622Z,67.61
2024-03-16T03:13:35.762Z,67.56
2024-03-16T03:18:37.846Z,67.65
2024-03-16T03:23:40.425Z,67.29
2024-03-16T03:28:42.543Z,67.01
2024-03-16T03:33:44.614Z,67.26
2024-03-16T03:38:46.994Z,67.11
2024-03-16T03:43:58.837Z,67.03
2024-03-16T03:49:13.197Z,67.19
2024-03-16T03:54:15.308Z,67.01
2024-03-16T03:59:17.524Z,66.95
2024-03-16T04:04:19.573Z,66.88
2024-03-16T04:09:21.621Z,66.68
2024-03-16T04:14:23.657Z,66.56
2024-03-16T04:19:25.748Z,66.50
2024-03-16T04:24:28.049Z,66.50
2024-03-16T04:29:32.553Z,66.48
2024-03-16T04:34:35.079Z,66.72
2024-03-16T04:39:37.488Z,66.36
2024-03-16T04:44:39.620Z,66.24
2024-03-16T04:49:41.831Z,66.49
2024-03-16T04:54:43.924Z,66.33
2024-03-16T04:59:45.953Z,66.20
2024-03-16T05:04:47.997Z,66.49
2024-03-16T05:09:50.050Z,66.57
2024-03-16T05:14:52.147Z,67.05
2024-03-16T05:19:54.247Z,67.34
2024-03-16T05:24:56.259Z,66.87
2024-03-16T05:29:58.335Z,66.39
2024-03-16T05:35:00.361Z,66.43
2024-03-16T05:40:03.186Z,66.13
2024-03-16T05:45:06.586Z,66.03
2024-03-16T05:50:09.325Z,65.73
2024-03-16T05:55:11.382Z,65.82
2024-03-16T06:00:16.945Z,65.56
2024-03-16T06:05:19.524Z,65.74
2024-03-16T06:10:21.657Z,65.81
2024-03-16T06:15:23.691Z,65.53
2024-03-16T06:20:25.747Z,65.36
2024-03-16T06:25:30.764Z,65.32
2024-03-16T06:30:32.957Z,65.44
2024-03-16T06:35:35.074Z,65.24
2024-03-16T06:40:37.100Z,64.96
2024-03-16T06:45:39.189Z,65.31
2024-03-16T06:50:41.281Z,64.84
2024-03-16T06:55:48.657Z,64.50
2024-03-16T07:00:50.851Z,64.66
2024-03-16T07:05:53.190Z,63.96
2024-03-16T07:10:58.244Z,64.36
2024-03-16T07:16:00.474Z,64.18
2024-03-16T07:21:02.560Z,64.04
2024-03-16T07:26:04.635Z,64.00
2024-03-16T07:31:06.855Z,63.70
2024-03-16T07:36:09.689Z,63.39
2024-03-16T07:41:12.116Z,62.23
2024-03-16T07:46:14.210Z,61.93
2024-03-16T07:51:18.257Z,62.53
2024-03-16T07:56:20.375Z,62.88
2024-03-16T08:01:25.313Z,63.86
2024-03-16T08:06:27.601Z,63.97
2024-03-16T08:11:31.387Z,63.89
2024-03-16T08:16:33.743Z,64.11
2024-03-16T08:21:37.464Z,63.20
2024-03-16T08:26:39.607Z,62.45
2024-03-16T08:31:41.628Z,62.11
2024-03-16T08:36:43.700Z,61.75
2024-03-16T08:41:45.851Z,61.37
2024-03-16T08:46:47.882Z,60.24
2024-03-16T08:51:49.967Z,60.88
2024-03-16T08:56:52.990Z,60.57
2024-03-16T09:01:55.116Z,60.36
2024-03-16T09:06:57.270Z,60.93
2024-03-16T09:11:59.300Z,61.66
2024-03-16T09:17:01.327Z,62.11
2024-03-16T09:22:03.532Z,62.39
2024-03-16T09:27:05.619Z,62.93
2024-03-16T09:32:07.678Z,61.85
2024-03-16T09:37:10.236Z,61.54
2024-03-16T09:42:13.602Z,61.22
